メインページ
METAR-TAF:

METAR-TAF

空港 :

ピッツバーグ国際空港

ピッツバーグ, ペンシルバニア州, アメリカ合衆国

緯度: 40-30-14N, 経度: 080-15-59W, 海抜: 366m

現時点の気象観測

当レポートは40分前の18:51(UTC)に作成
北/北西の風 6kt
気温 26°C
湿度 65%
気圧 1013 hPa
視程: 16.1km
高度2800ftの雲は散在している

METAR: KPIT 181851Z 34006KT 10SM SCT028 26/19 A2992 RMK AO2 SLP129 T02610194

時間: 15:31 (19:31 UTC)

予報

当レポートは1時間56分前の17:35(UTC)に作成
予報は18日の 18時(UTC)から 19日の 24時(UTC)まで有効
北西の風 5kt
視程: 10km
高度2500ftの千切れ雲あり
18日の 2000時(UTC)から
西/北西の風 3kt
視程: 10km
高度3500ftの千切れ雲あり
19日の 1000時(UTC)から
北西の風 2kt
視程: 3.2km
高度700ftの曇り
19日の 1400時(UTC)から
の風 3kt
視程: 9.7km
高度2000ftの雲は散在している
19日の 1600時(UTC)から
北/北西の風 5kt
視程: 10km
高度25000ftの千切れ雲あり

TAF: KPIT 181735Z 1818/1924 32005KT P6SM BKN025 FM182000 30003KT P6SM BKN035 FM191000 32002KT 2SM BR OVC007 FM191400 35003KT 6SM BR SCT020 FM191600 34005KT P6SM BKN250

4,000以上の空港の気象観測と天気予報(METAR報とTAF報)

利用可能な観測所は地図上に黄色い丸と赤い丸で示す。

丸の上にカーソルを重ねると観測所名を参照できる。

次にクリックすると気象観測と天気予報を参照できる。

マップの切り替え:黒色「×」印の緑ボタンをクリックして拡大、「-」印の緑ボタンをクリックして縮小、緑色の三角印をクリックして隣りの地図に切り替え


METAR-TAF: